Flight Track Log - Related Links

Times and Time Zones

All times are in EST time to prevent confusion due to time zone crossing. See the N7304T flight status page for this flight to view local times or setup timezone preferences in your user account.

Time Position Orientation Groundspeed Altitude Reporting Facility
EST Latitude Longitude Course Direction KTS MPH feet Rate Location/Type
Tue 02:03:57 PM 39.1833 -76.1500 49° Northeast 142 163 5,600  Level Potomac TRACON
Tue 02:04:57 PM 39.2167 -76.1000 49° Northeast 154 177 5,600 -50 Level Potomac TRACON
Tue 02:05:57 PM 39.2333 -76.0500 67° East 159 183 5,500  Descending Potomac TRACON
Tue 02:06:58 PM 39.2667 -76.0167 38° Northeast 160 184 5,600 37 Climbing Potomac TRACON
Tue 02:08:39 PM 39.3167 -75.9500 46° Northeast 160 184 5,600 -37 Level Philadelphia TRACON
Tue 02:09:39 PM 39.3500 -75.9167 38° Northeast 162 186 5,500 -50 Descending Philadelphia TRACON
Tue 02:10:39 PM 39.3833 -75.8667 49° Northeast 160 184 5,500  Level Philadelphia TRACON
Tue 02:11:39 PM 39.4167 -75.8333 38° Northeast 160 184 5,500  Level Philadelphia TRACON
Tue 02:12:39 PM 39.4500 -75.7833 49° Northeast 160 184 5,500 53 Level Philadelphia TRACON
Tue 02:13:33 PM 39.4667 -75.7500 57° Northeast 162 186 5,600  Climbing Philadelphia TRACON
Tue 02:14:33 PM 39.5000 -75.7000 49° Northeast 158 182 5,500  Descending Philadelphia TRACON
Tue 02:15:33 PM 39.5500 -75.7000 360° North 150 173 5,600 48 Climbing Philadelphia TRACON
Tue 02:16:39 PM 39.5833 -75.6833 21° North 149 171 5,600  Level Philadelphia TRACON
Tue 02:17:33 PM 39.6333 -75.6833 360° North 152 175 5,600  Level Philadelphia TRACON
Tue 02:18:39 PM 39.6833 -75.6667 14° North 153 176 5,600  Level Philadelphia TRACON
Tue 02:19:33 PM 39.7167 -75.6667 360° North 149 171 5,600  Level Philadelphia TRACON
Tue 02:20:33 PM 39.7500 -75.6667 360° North 147 169 5,600 50 Level Philadelphia TRACON
Tue 02:21:33 PM 39.8000 -75.6667 360° North 147 169 5,700  Climbing Philadelphia TRACON
Tue 02:22:33 PM 39.8333 -75.6667 360° North 147 169 5,600 -50 Descending Philadelphia TRACON
Tue 02:23:34 PM 39.8667 -75.6667 360° North 149 171 5,600 -48 Level Philadelphia TRACON
Tue 02:24:39 PM 39.9167 -75.6667 360° North 150 173 5,500 -48 Descending Philadelphia TRACON
Tue 02:25:39 PM 39.9667 -75.6500 14° North 154 177 5,500  Level Philadelphia TRACON
Tue 02:26:39 PM 39.9833 -75.6167 57° Northeast 162 186 5,500  Level Philadelphia TRACON
Tue 02:27:34 PM 40.0167 -75.5667 49° Northeast 163 188 5,500  Level Philadelphia TRACON
Tue 02:28:34 PM 40.0333 -75.5167 66° East 164 189 5,500 -50 Level Philadelphia TRACON
Tue 02:29:33 PM 40.0500 -75.4667 66° East 157 181 5,400  Descending Philadelphia TRACON
Tue 02:30:39 PM 40.0833 -75.4167 49° Northeast 160 184 5,500 48 Climbing Philadelphia TRACON
Tue 02:31:39 PM 40.1167 -75.3833 37° Northeast 158 182 5,500  Level Philadelphia TRACON
Tue 02:32:33 PM 40.1500 -75.3500 37° Northeast 164 189 5,500  Level Philadelphia TRACON
Tue 02:33:33 PM 40.1667 -75.3000 66° East 161 185 5,500 -52 Level Philadelphia TRACON
Tue 02:34:28 PM 40.2000 -75.2500 49° Northeast 166 191 5,400  Descending Philadelphia TRACON
Tue 02:36:23 PM 40.2500 -75.1667 52° Northeast 165 190 5,500 34 Climbing New York TRACON
Tue 02:37:23 PM 40.2833 -75.1167 49° Northeast 161 185 5,500 50 Level New York TRACON
Tue 02:38:23 PM 40.3167 -75.0833 37° Northeast 165 190 5,600 50 Climbing New York TRACON
Tue 02:39:23 PM 40.3333 -75.0333 66° East 161 185 5,600  Level New York TRACON
Tue 02:40:23 PM 40.3667 -74.9833 49° Northeast 165 190 5,600 -50 Level New York TRACON
Tue 02:41:23 PM 40.4000 -74.9500 37° Northeast 169 194 5,500 -50 Descending New York TRACON
Tue 02:42:23 PM 40.4333 -74.9167 37° Northeast 155 178 5,500  Level New York TRACON
Tue 02:43:23 PM 40.4667 -74.8667 49° Northeast 159 183 5,500  Level New York TRACON
Tue 02:44:23 PM 40.5000 -74.8333 37° Northeast 161 185 5,500  Level New York TRACON
Tue 02:45:17 PM 40.5167 -74.8000 57° Northeast 158 182 5,500 -300 Level New York TRACON
Tue 02:46:23 PM 40.5667 -74.7500 37° Northeast 170 196 4,900 -476 Descending New York TRACON
Tue 02:47:23 PM 40.5833 -74.7000 66° East 165 190 4,500 -368 Descending New York TRACON
Tue 02:48:17 PM 40.6167 -74.6667 37° Northeast 163 188 4,200 -421 Descending New York TRACON
Tue 02:49:17 PM 40.6333 -74.6167 66° East 163 188 3,700 -350 Descending New York TRACON
Tue 02:50:17 PM 40.6667 -74.5667 49° Northeast 154 177 3,500 -48 Descending New York TRACON
Tue 02:51:23 PM 40.6833 -74.5167 66° East 151 174 3,600 -198 Climbing New York TRACON
Tue 02:52:18 PM 40.7167 -74.4833 37° Northeast 144 166 3,100 -263 Descending New York TRACON
Tue 02:53:17 PM 40.7500 -74.4500 37° Northeast 147 169 3,100 -100 Level New York TRACON
Tue 02:54:18 PM 40.7667 -74.4000 66° East 140 161 2,900 -333 Descending New York TRACON
Tue 02:55:23 PM 40.8000 -74.3667 37° Northeast 142 163 2,400 -504 Descending New York TRACON
Tue 02:56:17 PM 40.8333 -74.3333 37° Northeast 144 166 1,900 -579 Descending New York TRACON
Tue 02:57:17 PM 40.8667 -74.3167 21° North 119 137 1,300 -347 Descending New York TRACON
Tue 02:58:18 PM 40.8833 -74.2833 57° Northeast 104 120 1,200  Descending New York TRACON
Tue 02:59:23 PM 40.9167 -74.2833 360° North 105 121 1,300 92 Climbing New York TRACON
Tue 03:01:00 PM 40.8752 -74.2814 166° South  Level Estimated
Tue 03:08:00 PM 40.8752 -74.2814 53° Northeast  Level Estimated
Tue 03:09:00 PM 40.8752 -74.2814 53° Northeast  Level Estimated
Tue 03:10:00 PM 40.8752 -74.2814 53° Northeast  Level Estimated
Tue 03:11:00 PM 40.8752 -74.2814 53° Northeast  Level Estimated

Login

Don't have an account? Register now (free) for customized features, flight alerts, and more!